Miyako Airport Miyako City JP
ICAO: ROMY
IATA:
Category: Medium
Scheduled Services:

Elevation: 150 ft
TransAlt. 14000 ft.

Airport Communications:
SHIMOJI APP:120.3
TWR:118.2

ROMY Zoom In..

If you have problems with the map follow the link
https://www.worldairports.se/pages/airport.php?
ICAO=ROMY

Runways:

(A) RW 04 length 6562 ft width 148 ft
---- / hdg 42

(B) RW 22 length 6562 ft width 148 ft
ILS 108.90 / hdg 222

Location; ROMY
Day. 17 / Time. 02.00 Zulu
* QNH: 1021
* Temperature: 19° c. 66.2°f.
* Wind from: 360° Speed 12 kn.
Dewpoint: 11° c.
Visibility: 10 km or more.
Clouds: Few 3000 ft.
Clouds: Broken 8000 ft.

ROMY 170200Z 36012KT 330V040 9999 VCSH FEW030 BKN080 19/11 Q1021


Wind From 360°
Speed 12 kn.

 
 
jpsmedia.com for Web Design worldairports.se 2018   terms of use